createdAt,value
2022-07-28T00:02:57.782Z,90.20
2022-07-28T00:08:02.216Z,90.20
2022-07-28T00:13:06.775Z,90.30
2022-07-28T00:18:10.114Z,90.30
2022-07-28T00:23:14.581Z,90.20
2022-07-28T00:28:17.637Z,90.30
2022-07-28T00:33:20.580Z,90.50
2022-07-28T00:38:24.950Z,90.80
2022-07-28T00:43:29.484Z,91.20
2022-07-28T00:48:32.609Z,91.30
2022-07-28T00:53:37.759Z,91.80
2022-07-28T00:58:41.255Z,92.00
2022-07-28T01:03:46.704Z,92.00
2022-07-28T01:09:03.036Z,91.80
2022-07-28T01:14:11.115Z,91.90
2022-07-28T01:19:35.072Z,91.70
2022-07-28T01:24:50.612Z,91.90
2022-07-28T01:30:05.336Z,91.90
2022-07-28T01:35:14.060Z,91.40
2022-07-28T01:40:20.837Z,91.90
2022-07-28T01:45:25.964Z,92.20
2022-07-28T01:50:32.071Z,92.10
2022-07-28T01:55:36.254Z,92.30
2022-07-28T02:00:40.641Z,92.60
2022-07-28T02:05:47.016Z,92.70
2022-07-28T02:11:09.765Z,93.10
2022-07-28T02:16:18.603Z,93.40
2022-07-28T02:21:25.629Z,93.60
2022-07-28T02:26:33.205Z,93.80
2022-07-28T02:31:44.034Z,93.80
2022-07-28T02:36:55.166Z,94.00
2022-07-28T02:42:05.282Z,94.00
2022-07-28T02:47:12.411Z,93.90
2022-07-28T02:52:17.648Z,94.50
2022-07-28T02:57:22.757Z,94.50
2022-07-28T03:02:26.592Z,94.00
2022-07-28T03:07:32.294Z,94.30
2022-07-28T03:12:35.340Z,94.90
2022-07-28T03:17:38.444Z,95.20
2022-07-28T03:22:42.964Z,95.20
2022-07-28T03:27:50.214Z,95.50
2022-07-28T03:32:56.623Z,96.50
2022-07-28T03:38:06.206Z,97.30
2022-07-28T03:43:10.952Z,97.90
2022-07-28T03:48:13.890Z,98.50
2022-07-28T03:53:22.149Z,99.30
2022-07-28T03:58:28.628Z,99.90
2022-07-28T04:03:42.558Z,99.90
2022-07-28T04:08:55.135Z,99.90
2022-07-28T04:13:58.100Z,99.90
2022-07-28T04:19:01.093Z,99.90
2022-07-28T04:24:06.102Z,99.90
2022-07-28T04:29:12.251Z,99.90
2022-07-28T04:34:16.441Z,99.90
2022-07-28T04:39:21.131Z,99.90
2022-07-28T04:44:24.108Z,99.90
2022-07-28T04:49:27.041Z,99.90
2022-07-28T04:54:32.338Z,99.90
2022-07-28T04:59:35.741Z,99.90
2022-07-28T05:04:38.985Z,99.90
2022-07-28T05:09:43.545Z,99.90
2022-07-28T05:14:46.516Z,99.90
2022-07-28T05:19:49.498Z,99.90
2022-07-28T05:24:53.805Z,99.90
2022-07-28T05:29:56.743Z,99.90
2022-07-28T05:34:59.663Z,99.90
2022-07-28T05:40:05.510Z,99.90
2022-07-28T05:45:15.778Z,99.90
2022-07-28T05:50:21.563Z,99.90
2022-07-28T05:55:35.884Z,99.90
2022-07-28T06:01:00.899Z,99.90
2022-07-28T06:06:15.990Z,99.90
2022-07-28T06:11:22.714Z,99.90
2022-07-28T06:16:25.969Z,99.90
2022-07-28T06:21:28.999Z,99.90
2022-07-28T06:26:34.802Z,99.90
2022-07-28T06:31:39.148Z,99.90
2022-07-28T06:36:42.447Z,99.90
2022-07-28T06:41:46.830Z,99.90
2022-07-28T06:46:50.414Z,99.90
2022-07-28T06:51:53.485Z,99.90
2022-07-28T06:56:57.948Z,99.90
2022-07-28T07:02:02.206Z,99.90
2022-07-28T07:07:17.869Z,99.90
2022-07-28T07:12:24.081Z,99.90
2022-07-28T07:17:34.974Z,99.90
2022-07-28T07:22:43.215Z,99.90
2022-07-28T07:27:52.046Z,99.90
2022-07-28T07:32:56.002Z,99.90
2022-07-28T07:38:03.735Z,99.90
2022-07-28T07:43:09.475Z,99.90
2022-07-28T07:48:16.266Z,99.90
2022-07-28T07:53:44.174Z,99.90
2022-07-28T07:58:56.577Z,99.90
2022-07-28T08:04:03.611Z,99.90
2022-07-28T08:09:07.619Z,99.90
2022-07-28T08:14:12.488Z,99.90
2022-07-28T08:19:15.603Z,99.90
2022-07-28T08:24:32.420Z,99.90
2022-07-28T08:29:38.230Z,99.90
2022-07-28T08:34:41.417Z,99.90
2022-07-28T08:39:44.339Z,99.90
2022-07-28T08:44:55.611Z,99.80
2022-07-28T08:49:59.486Z,99.80
2022-07-28T08:55:06.875Z,99.80
2022-07-28T09:00:13.220Z,99.00
2022-07-28T09:05:16.853Z,98.90
2022-07-28T09:10:20.318Z,98.80
2022-07-28T09:15:24.772Z,98.70
2022-07-28T09:20:29.934Z,98.20
2022-07-28T09:25:33.203Z,98.40
2022-07-28T09:30:53.840Z,97.70
2022-07-28T09:35:59.246Z,98.20
2022-07-28T09:41:03.265Z,98.40
2022-07-28T09:46:09.416Z,97.60
2022-07-28T09:51:14.167Z,97.80
2022-07-28T09:56:17.385Z,97.30
2022-07-28T10:01:22.334Z,97.10
2022-07-28T10:06:29.449Z,96.80
2022-07-28T10:11:32.691Z,96.30
2022-07-28T10:16:44.222Z,96.00
2022-07-28T10:21:49.175Z,96.20
2022-07-28T10:26:53.428Z,96.10
2022-07-28T10:32:05.149Z,95.70
2022-07-28T10:37:12.302Z,96.00
2022-07-28T10:42:17.199Z,95.70
2022-07-28T10:47:23.368Z,96.00
2022-07-28T10:52:46.230Z,95.60
2022-07-28T10:58:01.989Z,95.40
2022-07-28T11:03:40.169Z,95.30
2022-07-28T11:08:43.777Z,95.20
2022-07-28T11:13:51.580Z,94.90
2022-07-28T11:19:07.854Z,94.20
2022-07-28T11:25:18.770Z,94.10
2022-07-28T11:30:51.665Z,94.40
2022-07-28T11:35:58.791Z,93.90
2022-07-28T11:41:01.730Z,93.90
2022-07-28T11:46:37.382Z,93.70
2022-07-28T11:52:03.468Z,93.30
2022-07-28T11:57:09.763Z,93.00
2022-07-28T12:02:17.351Z,93.10
2022-07-28T12:07:32.952Z,93.20
2022-07-28T12:12:35.858Z,93.30
2022-07-28T12:17:40.673Z,92.90
2022-07-28T12:22:57.990Z,92.40
2022-07-28T12:28:14.848Z,92.10
2022-07-28T12:33:19.673Z,91.70
2022-07-28T12:38:25.554Z,91.50
2022-07-28T12:43:30.949Z,91.10
2022-07-28T12:48:34.058Z,90.90
2022-07-28T12:53:51.686Z,91.00
2022-07-28T12:59:05.924Z,91.00
2022-07-28T13:04:08.836Z,90.60
2022-07-28T13:09:23.997Z,90.10
2022-07-28T13:14:43.631Z,90.00
2022-07-28T13:19:47.354Z,89.70
2022-07-28T13:24:51.682Z,89.50
2022-07-28T13:29:55.415Z,89.80
2022-07-28T13:34:58.468Z,89.40
2022-07-28T13:40:02.827Z,88.60
2022-07-28T13:45:06.341Z,88.50
2022-07-28T13:50:11.263Z,88.30
2022-07-28T13:55:19.272Z,88.20
2022-07-28T14:00:23.795Z,87.60
2022-07-28T14:05:32.212Z,87.30
2022-07-28T14:10:38.098Z,86.30
2022-07-28T14:15:41.718Z,85.40
2022-07-28T14:20:44.806Z,84.30
2022-07-28T14:25:50.850Z,83.30
2022-07-28T14:30:54.225Z,83.00
2022-07-28T14:35:57.334Z,81.60
2022-07-28T14:41:01.651Z,80.40
2022-07-28T14:46:15.043Z,79.70
2022-07-28T14:51:19.664Z,78.70
2022-07-28T14:56:24.020Z,78.20
2022-07-28T15:01:27.242Z,77.10
2022-07-28T15:06:38.815Z,76.90
2022-07-28T15:11:44.684Z,76.40
2022-07-28T15:16:47.801Z,76.40
2022-07-28T15:21:50.881Z,75.10
2022-07-28T15:26:55.309Z,74.30
2022-07-28T15:31:58.620Z,73.60
2022-07-28T15:37:02.395Z,73.00
2022-07-28T15:42:07.127Z,72.90
2022-07-28T15:47:10.309Z,72.60
2022-07-28T15:52:14.452Z,72.30
2022-07-28T15:57:19.720Z,71.70
2022-07-28T16:02:23.161Z,71.20
2022-07-28T16:07:28.459Z,71.10
2022-07-28T16:12:33.408Z,71.10
2022-07-28T16:17:37.249Z,70.90
2022-07-28T16:22:41.007Z,70.90
2022-07-28T16:27:45.806Z,70.20
2022-07-28T16:32:49.051Z,69.90
2022-07-28T16:37:52.151Z,69.90
2022-07-28T16:42:56.899Z,70.10
2022-07-28T16:48:01.251Z,70.20
2022-07-28T16:53:08.848Z,69.70
2022-07-28T16:58:13.328Z,69.40
2022-07-28T17:03:17.006Z,69.20
2022-07-28T17:08:20.185Z,68.80
2022-07-28T17:13:25.652Z,68.40
2022-07-28T17:18:28.828Z,68.30
2022-07-28T17:23:34.666Z,67.80
2022-07-28T17:28:41.480Z,67.10
2022-07-28T17:33:44.588Z,67.10
2022-07-28T17:38:47.575Z,67.00
2022-07-28T17:43:51.928Z,67.10
2022-07-28T17:48:55.168Z,67.00
2022-07-28T17:53:58.277Z,66.20
2022-07-28T17:59:02.905Z,65.70
2022-07-28T18:04:06.203Z,65.30
2022-07-28T18:09:10.633Z,65.20
2022-07-28T18:14:15.657Z,65.20
2022-07-28T18:19:21.060Z,65.20
2022-07-28T18:24:24.250Z,65.10
2022-07-28T18:29:37.978Z,65.00
2022-07-28T18:34:41.789Z,64.90
2022-07-28T18:39:44.677Z,65.00
2022-07-28T18:44:48.888Z,65.10
2022-07-28T18:49:51.840Z,65.30
2022-07-28T18:54:54.956Z,65.00
2022-07-28T18:59:59.211Z,64.70
2022-07-28T19:05:02.149Z,65.00
2022-07-28T19:10:06.620Z,65.20
2022-07-28T19:15:11.351Z,65.40
2022-07-28T19:20:14.300Z,65.60
2022-07-28T19:25:17.250Z,66.30
2022-07-28T19:30:23.344Z,66.30
2022-07-28T19:35:26.322Z,66.80
2022-07-28T19:40:31.831Z,67.30
2022-07-28T19:45:36.317Z,67.90
2022-07-28T19:50:48.563Z,68.40
2022-07-28T19:55:54.810Z,68.90
2022-07-28T20:01:00.255Z,69.50
2022-07-28T20:06:03.273Z,69.70
2022-07-28T20:11:06.500Z,70.00
2022-07-28T20:16:10.732Z,69.70
2022-07-28T20:21:13.792Z,71.10
2022-07-28T20:26:17.232Z,72.00
2022-07-28T20:31:27.892Z,72.80
2022-07-28T20:36:30.921Z,73.40
2022-07-28T20:41:33.786Z,73.70
2022-07-28T20:46:37.992Z,74.10
2022-07-28T20:51:50.731Z,74.60
2022-07-28T20:56:54.691Z,75.10
2022-07-28T21:01:59.123Z,75.60
2022-07-28T21:07:04.187Z,76.20
2022-07-28T21:12:08.255Z,76.70
2022-07-28T21:17:12.695Z,76.90
2022-07-28T21:22:15.631Z,77.80
2022-07-28T21:27:18.611Z,78.40
2022-07-28T21:32:28.869Z,78.80
2022-07-28T21:37:31.788Z,80.00
2022-07-28T21:42:35.706Z,81.30
2022-07-28T21:47:39.977Z,81.90
2022-07-28T21:52:42.925Z,82.20
2022-07-28T21:57:46.065Z,83.70
2022-07-28T22:02:50.349Z,85.00
2022-07-28T22:07:54.518Z,85.40
2022-07-28T22:12:57.466Z,86.10
2022-07-28T22:18:02.084Z,87.40
2022-07-28T22:23:05.028Z,89.00
2022-07-28T22:28:30.046Z,90.40
2022-07-28T22:33:34.704Z,90.60
2022-07-28T22:38:37.892Z,90.70
2022-07-28T22:43:40.778Z,91.00
2022-07-28T22:48:45.152Z,91.20
2022-07-28T22:53:48.171Z,91.40
2022-07-28T22:58:51.137Z,91.30
2022-07-28T23:03:55.435Z,91.80
2022-07-28T23:08:58.355Z,92.10
2022-07-28T23:14:01.280Z,92.30
2022-07-28T23:19:11.690Z,92.40
2022-07-28T23:24:14.951Z,92.90
2022-07-28T23:29:18.045Z,93.40
2022-07-28T23:34:22.447Z,93.80
2022-07-28T23:39:25.347Z,94.50
2022-07-28T23:44:28.275Z,95.20
2022-07-28T23:49:32.616Z,96.40
2022-07-28T23:54:35.515Z,96.50
2022-07-28T23:59:38.448Z,97.40
